Time;durP1;ratioP1;P1;durP2;ratioP2;P2;SDS_P1;SDS_P2;PMS_P1;PMS_P2;Temp;Humidity;BMP_temperature;BMP_pressure;BME280_temperature;BME280_humidity;BME280_pressure;Samples;Min_cycle;Max_cycle;Signal;HPM_P1;HPM_P2
2022/04/13 00:00:07;;;;;;;13.25;7.78;;;;;;;;;;4988626;28;20137;-59
2022/04/13 00:02:33;;;;;;;13.65;7.65;;;;;;;;;;4988736;28;20193;-60
2022/04/13 00:04:59;;;;;;;10.73;7.30;;;;;;;;;;4988922;28;20050;-60
2022/04/13 00:07:26;;;;;;;13.00;6.78;;;;;;;;;;4988129;28;20125;-60
2022/04/13 00:09:52;;;;;;;11.07;7.90;;;;;;;;;;4987882;28;20042;-60
2022/04/13 00:12:18;;;;;;;11.07;7.05;;;;;;;;;;4988404;28;20053;-60
2022/04/13 00:14:44;;;;;;;13.25;7.65;;;;;;;;;;4988438;28;20046;-60
2022/04/13 00:17:10;;;;;;;12.73;7.30;;;;;;;;;;4970856;28;20046;-60
2022/04/13 00:19:36;;;;;;;13.52;7.68;;;;;;;;;;4988505;28;20043;-60
2022/04/13 00:22:03;;;;;;;16.02;8.70;;;;;;;;;;4987262;28;20049;-60
2022/04/13 00:24:29;;;;;;;15.80;8.48;;;;;;;;;;4988236;28;20105;-60
2022/04/13 00:26:57;;;;;;;12.13;8.00;;;;;;;;;;4988389;28;20717;-60
2022/04/13 00:29:24;;;;;;;13.55;8.35;;;;;;;;;;4988391;28;20045;-60
2022/04/13 00:31:52;;;;;;;12.82;7.95;;;;;;;;;;4987483;28;20050;-60
2022/04/13 00:34:18;;;;;;;13.70;8.13;;;;;;;;;;4988098;28;20121;-60
2022/04/13 00:36:44;;;;;;;12.48;7.85;;;;;;;;;;4987011;28;20180;-60
2022/04/13 00:39:10;;;;;;;12.38;7.45;;;;;;;;;;4987684;28;20045;-60
2022/04/13 00:41:37;;;;;;;12.27;7.63;;;;;;;;;;4987738;28;20097;-60
2022/04/13 00:44:03;;;;;;;14.32;8.50;;;;;;;;;;4988010;28;20065;-60
2022/04/13 00:46:30;;;;;;;13.65;7.95;;;;;;;;;;4988440;28;20068;-60
2022/04/13 00:48:57;;;;;;;14.27;8.15;;;;;;;;;;4988130;28;20042;-60
2022/04/13 00:51:23;;;;;;;11.23;7.80;;;;;;;;;;4986720;28;20061;-60
2022/04/13 00:53:51;;;;;;;13.45;9.40;;;;;;;;;;4986754;28;20058;-60
2022/04/13 00:56:23;;;;;;;13.40;8.65;;;;;;;;;;4987914;28;20078;-60
2022/04/13 00:58:50;;;;;;;16.02;8.15;;;;;;;;;;4987486;28;20050;-60
2022/04/13 01:01:16;;;;;;;12.40;8.10;;;;;;;;;;4990502;28;20042;-60
2022/04/13 01:03:43;;;;;;;14.05;8.40;;;;;;;;;;5006634;28;20053;-60
2022/04/13 01:06:10;;;;;;;12.48;7.95;;;;;;;;;;5005160;28;20050;-60
2022/04/13 01:08:37;;;;;;;26.33;9.25;;;;;;;;;;4990470;28;20047;-59
2022/04/13 01:11:04;;;;;;;14.25;9.38;;;;;;;;;;4987195;28;20089;-60
2022/04/13 01:13:30;;;;;;;16.95;8.77;;;;;;;;;;4987314;28;20133;-58
2022/04/13 01:15:56;;;;;;;13.88;8.65;;;;;;;;;;4987618;28;20298;-60
2022/04/13 01:18:22;;;;;;;13.38;8.82;;;;;;;;;;4969724;28;20042;-60
2022/04/13 01:20:51;;;;;;;18.63;8.88;;;;;;;;;;4968561;28;20050;-60
2022/04/13 01:23:17;;;;;;;14.60;8.90;;;;;;;;;;4987260;28;20137;-60
2022/04/13 01:25:47;;;;;;;18.77;8.55;;;;;;;;;;4987119;28;20442;-60
2022/04/13 01:28:14;;;;;;;12.68;8.73;;;;;;;;;;4987122;28;20104;-60
2022/04/13 01:30:40;;;;;;;18.92;9.98;;;;;;;;;;4986944;28;20169;-60
2022/04/13 01:33:07;;;;;;;13.35;9.15;;;;;;;;;;4986410;28;20078;-60
2022/04/13 01:35:33;;;;;;;14.75;9.02;;;;;;;;;;4985919;28;20047;-59
2022/04/13 01:37:59;;;;;;;15.13;9.00;;;;;;;;;;4986898;28;20050;-60
2022/04/13 01:40:25;;;;;;;15.10;8.77;;;;;;;;;;4987020;28;20042;-60
2022/04/13 01:42:51;;;;;;;13.73;8.45;;;;;;;;;;4986496;28;20039;-60
2022/04/13 01:45:21;;;;;;;13.50;8.98;;;;;;;;;;4986481;28;20042;-60
2022/04/13 01:47:48;;;;;;;14.88;8.73;;;;;;;;;;4986215;28;20046;-60
2022/04/13 01:50:16;;;;;;;18.55;8.82;;;;;;;;;;4985683;28;20054;-60
2022/04/13 01:52:43;;;;;;;19.13;9.20;;;;;;;;;;4986500;28;20050;-60
2022/04/13 01:55:09;;;;;;;17.45;8.48;;;;;;;;;;4986727;28;20049;-60
2022/04/13 01:57:36;;;;;;;13.07;9.23;;;;;;;;;;4986468;28;20051;-60
2022/04/13 02:00:03;;;;;;;14.25;7.97;;;;;;;;;;4986677;28;20042;-59
2022/04/13 02:02:29;;;;;;;13.38;8.73;;;;;;;;;;4986393;28;20049;-60
2022/04/13 02:04:55;;;;;;;16.17;8.75;;;;;;;;;;4986596;28;20055;-59
2022/04/13 02:07:21;;;;;;;18.85;8.63;;;;;;;;;;4985900;28;20051;-60
2022/04/13 02:09:47;;;;;;;15.48;8.13;;;;;;;;;;4986318;28;20042;-60
2022/04/13 02:12:14;;;;;;;12.95;8.68;;;;;;;;;;4986333;28;20054;-60
2022/04/13 02:14:40;;;;;;;16.23;8.30;;;;;;;;;;4986042;28;20057;-61
2022/04/13 02:17:06;;;;;;;14.25;8.27;;;;;;;;;;4985550;28;20085;-60
2022/04/13 02:19:32;;;;;;;14.30;8.60;;;;;;;;;;4986022;28;20126;-59
2022/04/13 02:21:58;;;;;;;14.27;8.65;;;;;;;;;;4986161;28;20453;-59
2022/04/13 02:24:24;;;;;;;19.95;9.00;;;;;;;;;;4986241;28;20052;-60
2022/04/13 02:26:51;;;;;;;16.13;8.57;;;;;;;;;;4986158;28;20718;-59
2022/04/13 02:29:17;;;;;;;15.88;9.15;;;;;;;;;;4986168;28;20555;-60
2022/04/13 02:31:43;;;;;;;16.10;8.48;;;;;;;;;;4985321;28;20105;-60
2022/04/13 02:34:09;;;;;;;16.40;9.32;;;;;;;;;;4986175;28;20038;-60
2022/04/13 02:36:35;;;;;;;17.17;8.85;;;;;;;;;;4985049;28;20057;-60
2022/04/13 02:39:01;;;;;;;16.85;9.55;;;;;;;;;;4986374;28;20123;-59
2022/04/13 02:41:28;;;;;;;16.52;9.05;;;;;;;;;;4986802;28;20054;-60
2022/04/13 02:43:54;;;;;;;18.50;9.45;;;;;;;;;;4985598;28;20050;-60
2022/04/13 02:46:20;;;;;;;13.10;9.50;;;;;;;;;;4985751;28;20054;-60
2022/04/13 02:48:46;;;;;;;23.83;9.77;;;;;;;;;;4985991;28;20046;-60
2022/04/13 02:51:12;;;;;;;16.67;9.38;;;;;;;;;;4990620;28;20041;-60
2022/04/13 02:53:38;;;;;;;17.95;8.98;;;;;;;;;;4986347;28;20069;-60
2022/04/13 02:56:05;;;;;;;19.30;9.18;;;;;;;;;;4988528;28;20068;-60
2022/04/13 02:58:31;;;;;;;13.98;9.30;;;;;;;;;;4989587;28;20042;-60
2022/04/13 03:00:57;;;;;;;13.93;8.98;;;;;;;;;;4989394;28;20045;-60
2022/04/13 03:03:23;;;;;;;12.05;9.25;;;;;;;;;;4989732;28;20061;-60
2022/04/13 03:05:49;;;;;;;15.60;9.32;;;;;;;;;;4988773;28;20073;-59
2022/04/13 03:08:16;;;;;;;12.52;8.88;;;;;;;;;;4990008;28;20057;-60
2022/04/13 03:10:43;;;;;;;13.45;9.10;;;;;;;;;;4989366;28;20042;-60
2022/04/13 03:13:10;;;;;;;18.83;10.23;;;;;;;;;;4989414;28;20082;-60
2022/04/13 03:15:36;;;;;;;13.48;8.98;;;;;;;;;;4989045;28;20481;-60
2022/04/13 03:18:05;;;;;;;16.52;9.73;;;;;;;;;;4989608;28;20042;-59
2022/04/13 03:20:31;;;;;;;15.27;9.52;;;;;;;;;;4988650;28;20057;-59
2022/04/13 03:22:57;;;;;;;17.33;9.73;;;;;;;;;;4989736;28;20049;-60
2022/04/13 03:25:24;;;;;;;17.33;10.25;;;;;;;;;;4989549;28;20074;-60
2022/04/13 03:27:50;;;;;;;20.52;10.32;;;;;;;;;;4988893;28;20604;-60
2022/04/13 03:30:16;;;;;;;15.68;9.35;;;;;;;;;;4989115;28;20051;-60
2022/04/13 03:32:43;;;;;;;19.40;9.82;;;;;;;;;;4989120;28;20046;-60
2022/04/13 03:35:10;;;;;;;14.98;10.20;;;;;;;;;;4988558;28;20116;-60
2022/04/13 03:37:37;;;;;;;17.55;10.55;;;;;;;;;;4988946;28;20054;-60
2022/04/13 03:40:03;;;;;;;25.00;10.25;;;;;;;;;;4989136;28;20081;-60
2022/04/13 03:42:36;;;;;;;25.73;11.75;;;;;;;;;;4989316;28;20043;-60
2022/04/13 03:45:09;;;;;;;25.73;11.68;;;;;;;;;;4988529;28;20100;-61
2022/04/13 03:47:35;;;;;;;22.83;11.48;;;;;;;;;;4988784;28;20370;-60
2022/04/13 03:50:02;;;;;;;23.98;11.73;;;;;;;;;;4988180;28;20679;-59
2022/04/13 03:52:31;;;;;;;20.40;11.57;;;;;;;;;;4988710;28;20494;-60
2022/04/13 03:54:57;;;;;;;27.55;12.45;;;;;;;;;;4988461;28;20042;-60
2022/04/13 03:57:23;;;;;;;29.85;12.05;;;;;;;;;;4988723;28;20492;-60
2022/04/13 03:59:50;;;;;;;27.95;12.73;;;;;;;;;;4971263;28;20054;-60
2022/04/13 04:02:16;;;;;;;24.48;11.98;;;;;;;;;;4988770;28;20068;-60
2022/04/13 04:04:42;;;;;;;25.48;12.43;;;;;;;;;;4970018;28;20794;-58
2022/04/13 04:07:08;;;;;;;22.20;12.93;;;;;;;;;;4987749;28;20131;-60
2022/04/13 04:09:35;;;;;;;28.10;13.82;;;;;;;;;;4987690;28;20058;-59
2022/04/13 04:12:01;;;;;;;32.63;13.70;;;;;;;;;;4988843;28;20220;-59
2022/04/13 04:14:27;;;;;;;28.65;12.50;;;;;;;;;;4988584;28;20096;-60
2022/04/13 04:16:53;;;;;;;27.23;12.43;;;;;;;;;;4988131;28;20050;-60
2022/04/13 04:19:20;;;;;;;23.42;13.45;;;;;;;;;;4988365;28;21038;-60
2022/04/13 04:21:46;;;;;;;25.65;13.27;;;;;;;;;;4987288;28;20054;-60
2022/04/13 04:24:12;;;;;;;22.27;12.80;;;;;;;;;;4987598;28;20049;-60
2022/04/13 04:26:38;;;;;;;25.40;11.98;;;;;;;;;;4988343;28;20520;-60
2022/04/13 04:29:05;;;;;;;22.95;12.88;;;;;;;;;;4988449;28;20042;-59
2022/04/13 04:31:50;;;;;;;21.27;11.68;;;;;;;;;;4987882;28;20551;-59
2022/04/13 04:34:16;;;;;;;25.70;12.40;;;;;;;;;;4987814;28;20039;-60
2022/04/13 04:36:42;;;;;;;22.95;12.68;;;;;;;;;;4969542;28;20520;-60
2022/04/13 04:39:08;;;;;;;19.88;12.38;;;;;;;;;;4988455;28;20050;-60
2022/04/13 04:41:35;;;;;;;18.95;10.73;;;;;;;;;;4987814;28;20046;-59
2022/04/13 04:44:01;;;;;;;23.73;12.45;;;;;;;;;;4988089;28;20046;-59
2022/04/13 04:46:27;;;;;;;17.80;11.75;;;;;;;;;;4988103;28;20043;-60
2022/04/13 04:48:54;;;;;;;18.90;12.35;;;;;;;;;;4987289;28;20049;-60
2022/04/13 04:51:20;;;;;;;18.77;11.93;;;;;;;;;;4986797;28;20111;-60
2022/04/13 04:53:47;;;;;;;20.27;11.38;;;;;;;;;;4987787;28;20129;-60
2022/04/13 04:56:14;;;;;;;19.75;11.95;;;;;;;;;;4987501;28;20046;-60
2022/04/13 04:58:40;;;;;;;19.95;11.10;;;;;;;;;;4987421;28;20057;-60
2022/04/13 05:01:07;;;;;;;20.95;12.27;;;;;;;;;;4995729;28;20046;-59
2022/04/13 05:03:33;;;;;;;20.35;11.23;;;;;;;;;;5006135;28;20049;-60
2022/04/13 05:05:59;;;;;;;22.65;12.73;;;;;;;;;;5006627;28;20056;-60
2022/04/13 05:08:25;;;;;;;22.05;11.43;;;;;;;;;;5007502;28;20514;-59
2022/04/13 05:10:51;;;;;;;20.83;11.35;;;;;;;;;;5006817;28;20085;-59
2022/04/13 05:13:19;;;;;;;21.55;12.73;;;;;;;;;;4986453;28;20058;-57
2022/04/13 05:15:45;;;;;;;18.23;12.23;;;;;;;;;;5006428;28;20041;-59
2022/04/13 05:18:12;;;;;;;20.83;12.43;;;;;;;;;;5004854;28;20053;-58
2022/04/13 05:20:38;;;;;;;24.80;12.15;;;;;;;;;;5005546;28;20092;-58
2022/04/13 05:23:04;;;;;;;25.13;12.95;;;;;;;;;;5005707;28;20073;-58
2022/04/13 05:25:30;;;;;;;36.35;13.02;;;;;;;;;;4986539;28;20074;-58
2022/04/13 05:27:57;;;;;;;22.98;12.48;;;;;;;;;;4987665;28;20046;-58
2022/04/13 05:30:23;;;;;;;23.67;13.23;;;;;;;;;;4986887;28;20050;-58
2022/04/13 05:32:50;;;;;;;27.75;12.35;;;;;;;;;;4986233;28;20050;-58
2022/04/13 05:35:17;;;;;;;21.08;12.57;;;;;;;;;;4986038;28;20066;-58
2022/04/13 05:37:43;;;;;;;25.17;13.63;;;;;;;;;;4986868;28;20050;-58
2022/04/13 05:40:10;;;;;;;26.73;13.45;;;;;;;;;;4987062;28;20049;-58
2022/04/13 05:42:36;;;;;;;23.00;13.48;;;;;;;;;;4986708;28;20058;-58
2022/04/13 05:45:02;;;;;;;26.48;15.30;;;;;;;;;;4987053;28;20047;-58
2022/04/13 05:47:29;;;;;;;29.00;14.73;;;;;;;;;;4986165;28;20499;-58
2022/04/13 05:49:55;;;;;;;33.38;14.63;;;;;;;;;;4986463;28;20046;-58
2022/04/13 05:52:21;;;;;;;26.08;14.50;;;;;;;;;;5002970;28;20458;-57
2022/04/13 05:54:47;;;;;;;28.75;14.82;;;;;;;;;;5005448;28;20547;-58
2022/04/13 05:57:14;;;;;;;27.25;15.07;;;;;;;;;;5002260;28;20100;-58
2022/04/13 05:59:40;;;;;;;30.42;15.82;;;;;;;;;;5003952;28;20215;-58
2022/04/13 06:02:06;;;;;;;26.95;15.40;;;;;;;;;;5005354;28;20089;-58
2022/04/13 06:04:32;;;;;;;29.90;15.77;;;;;;;;;;4977828;28;20058;-58
2022/04/13 06:06:59;;;;;;;26.23;14.55;;;;;;;;;;4985987;28;20068;-58
2022/04/13 06:09:25;;;;;;;30.58;15.82;;;;;;;;;;4985565;28;20678;-58
2022/04/13 06:11:52;;;;;;;44.10;17.08;;;;;;;;;;4986474;28;20104;-58
2022/04/13 06:14:18;;;;;;;27.75;15.77;;;;;;;;;;4986318;28;20038;-58
2022/04/13 06:16:44;;;;;;;31.10;15.57;;;;;;;;;;4985318;28;20108;-58
2022/04/13 06:19:10;;;;;;;26.35;15.18;;;;;;;;;;4986340;28;20080;-58
2022/04/13 06:21:37;;;;;;;33.42;15.60;;;;;;;;;;4985393;28;20038;-58
2022/04/13 06:24:03;;;;;;;30.40;15.85;;;;;;;;;;4985979;28;20094;-58
2022/04/13 06:26:29;;;;;;;30.70;16.98;;;;;;;;;;4986483;28;20086;-58
2022/04/13 06:28:55;;;;;;;30.90;16.23;;;;;;;;;;4986365;28;20042;-58
2022/04/13 06:31:21;;;;;;;32.33;15.82;;;;;;;;;;4985304;28;20241;-58
2022/04/13 06:33:49;;;;;;;24.98;16.02;;;;;;;;;;4985866;28;20038;-58
2022/04/13 06:36:15;;;;;;;26.65;15.35;;;;;;;;;;4985187;28;20731;-58
2022/04/13 06:38:41;;;;;;;29.10;16.92;;;;;;;;;;4985747;28;20048;-58
2022/04/13 06:41:08;;;;;;;30.15;16.02;;;;;;;;;;4968591;28;20082;-58
2022/04/13 06:43:34;;;;;;;29.00;16.05;;;;;;;;;;4985837;28;20042;-58
2022/04/13 06:46:01;;;;;;;29.63;15.50;;;;;;;;;;4985831;28;20118;-58
2022/04/13 06:48:27;;;;;;;27.80;15.60;;;;;;;;;;4986241;28;20073;-58
2022/04/13 06:50:53;;;;;;;24.67;16.15;;;;;;;;;;4984903;28;20141;-58
2022/04/13 06:53:19;;;;;;;26.20;16.33;;;;;;;;;;4985834;28;20120;-58
2022/04/13 06:55:47;;;;;;;32.15;15.57;;;;;;;;;;4985935;28;20104;-59
2022/04/13 06:58:14;;;;;;;28.92;15.50;;;;;;;;;;4985257;28;20050;-59
2022/04/13 07:00:40;;;;;;;28.40;15.52;;;;;;;;;;4986036;28;20048;-58
2022/04/13 07:03:06;;;;;;;26.33;14.15;;;;;;;;;;4985777;28;20082;-58
2022/04/13 07:05:33;;;;;;;26.48;15.38;;;;;;;;;;4985059;28;20046;-58
2022/04/13 07:08:00;;;;;;;31.73;16.10;;;;;;;;;;4985524;28;20522;-58
2022/04/13 07:10:27;;;;;;;30.67;15.82;;;;;;;;;;4986081;28;20628;-58
2022/04/13 07:12:53;;;;;;;25.58;14.18;;;;;;;;;;4984695;28;20050;-59
2022/04/13 07:15:19;;;;;;;31.33;14.52;;;;;;;;;;4985792;28;20731;-58
2022/04/13 07:17:46;;;;;;;26.08;14.38;;;;;;;;;;4985112;28;20515;-58
2022/04/13 07:20:12;;;;;;;28.38;14.68;;;;;;;;;;4984896;28;20043;-58
2022/04/13 07:22:46;;;;;;;29.98;14.93;;;;;;;;;;4985369;28;20137;-58
2022/04/13 07:25:13;;;;;;;31.10;14.18;;;;;;;;;;4985309;28;20038;-58
2022/04/13 07:27:40;;;;;;;25.02;12.85;;;;;;;;;;4968250;28;20136;-58
2022/04/13 07:30:06;;;;;;;20.48;11.93;;;;;;;;;;4985297;28;20715;-58
2022/04/13 07:32:32;;;;;;;26.20;12.63;;;;;;;;;;4985617;28;20121;-58
2022/04/13 07:34:59;;;;;;;23.00;12.50;;;;;;;;;;4985267;28;20404;-59
2022/04/13 07:37:26;;;;;;;25.15;13.30;;;;;;;;;;4985893;28;20046;-59
2022/04/13 07:39:52;;;;;;;25.42;13.27;;;;;;;;;;4984407;28;20492;-58
2022/04/13 07:42:23;;;;;;;26.67;12.30;;;;;;;;;;4986814;28;20054;-58
2022/04/13 07:44:49;;;;;;;26.25;14.00;;;;;;;;;;4988791;28;20116;-58
2022/04/13 07:47:15;;;;;;;24.67;11.95;;;;;;;;;;4988818;28;20043;-59
2022/04/13 07:49:43;;;;;;;22.98;12.13;;;;;;;;;;4987637;28;20039;-58
2022/04/13 07:52:09;;;;;;;22.88;12.45;;;;;;;;;;4988432;28;20122;-58
2022/04/13 07:54:36;;;;;;;30.15;13.50;;;;;;;;;;4988095;28;20053;-58
2022/04/13 07:57:02;;;;;;;21.67;12.20;;;;;;;;;;4988749;28;20046;-58
2022/04/13 07:59:29;;;;;;;23.08;12.90;;;;;;;;;;4988734;28;20467;-58
2022/04/13 08:01:55;;;;;;;24.30;12.88;;;;;;;;;;4988707;28;20058;-58
2022/04/13 08:04:21;;;;;;;26.00;12.35;;;;;;;;;;4987887;28;20081;-58
2022/04/13 08:06:47;;;;;;;20.98;11.48;;;;;;;;;;4987711;28;20089;-58
2022/04/13 08:09:14;;;;;;;17.85;10.45;;;;;;;;;;4988144;28;20104;-58
2022/04/13 08:11:40;;;;;;;20.77;11.00;;;;;;;;;;4988238;28;20049;-59
2022/04/13 08:14:06;;;;;;;16.83;9.38;;;;;;;;;;4988596;28;20071;-58
2022/04/13 08:16:32;;;;;;;18.00;9.48;;;;;;;;;;4988095;28;20046;-59
2022/04/13 08:18:59;;;;;;;17.60;9.57;;;;;;;;;;4988235;28;20566;-57
2022/04/13 08:21:25;;;;;;;18.85;10.73;;;;;;;;;;4987732;28;20053;-58
2022/04/13 08:23:52;;;;;;;16.52;8.50;;;;;;;;;;4988102;28;20084;-58
2022/04/13 08:26:18;;;;;;;17.00;8.80;;;;;;;;;;4988167;28;20050;-58
2022/04/13 08:28:44;;;;;;;18.45;9.15;;;;;;;;;;4987776;28;20043;-58
2022/04/13 08:31:10;;;;;;;18.23;9.43;;;;;;;;;;4988114;28;20499;-58
2022/04/13 08:33:37;;;;;;;17.58;9.13;;;;;;;;;;4987784;28;20512;-58
2022/04/13 08:36:03;;;;;;;20.15;10.48;;;;;;;;;;4986308;28;20043;-58
2022/04/13 08:38:29;;;;;;;20.60;10.07;;;;;;;;;;4988268;28;20050;-59
2022/04/13 08:40:58;;;;;;;16.10;9.20;;;;;;;;;;4970629;28;20046;-58
2022/04/13 08:43:28;;;;;;;21.92;10.05;;;;;;;;;;4988045;28;20104;-58
2022/04/13 08:45:56;;;;;;;20.10;11.77;;;;;;;;;;4987472;28;20046;-58
2022/04/13 08:48:23;;;;;;;;;;;;;;;;;;4988064;28;20492;-58
2022/04/13 08:50:53;;;;;;;20.83;10.88;;;;;;;;;;4986134;28;19972;-58
2022/04/13 08:53:21;;;;;;;20.42;10.70;;;;;;;;;;4987456;28;20042;-59
2022/04/13 08:55:52;;;;;;;23.48;10.23;;;;;;;;;;4987269;28;20396;-58
2022/04/13 08:58:19;;;;;;;15.57;9.68;;;;;;;;;;4987574;28;20057;-58
2022/04/13 09:00:49;;;;;;;19.95;8.43;;;;;;;;;;4986569;28;20484;-58
2022/04/13 09:03:19;;;;;;;15.93;8.00;;;;;;;;;;4987618;28;20046;-58
2022/04/13 09:05:47;;;;;;;18.40;8.35;;;;;;;;;;4986422;28;20054;-58
2022/04/13 09:08:17;;;;;;;18.23;8.07;;;;;;;;;;4987456;28;20058;-58
2022/04/13 09:10:44;;;;;;;15.20;8.45;;;;;;;;;;4987129;28;20124;-58
2022/04/13 09:13:10;;;;;;;15.50;8.15;;;;;;;;;;4969316;28;20054;-58
2022/04/13 09:15:38;;;;;;;13.80;7.68;;;;;;;;;;4986629;28;20034;-58
2022/04/13 09:18:06;;;;;;;20.10;9.00;;;;;;;;;;4987326;28;20193;-58
2022/04/13 09:20:32;;;;;;;14.98;7.53;;;;;;;;;;4986107;28;20057;-58
2022/04/13 09:23:00;;;;;;;16.05;8.30;;;;;;;;;;4987387;28;20125;-58
2022/04/13 09:25:27;;;;;;;16.90;8.27;;;;;;;;;;4987098;28;20571;-58
2022/04/13 09:27:53;;;;;;;16.63;7.97;;;;;;;;;;4986745;28;20133;-58
2022/04/13 09:30:20;;;;;;;14.00;7.00;;;;;;;;;;4986877;28;20043;-58
2022/04/13 09:32:46;;;;;;;16.73;7.47;;;;;;;;;;4986768;28;20105;-58
2022/04/13 09:35:12;;;;;;;14.90;7.43;;;;;;;;;;4986311;28;20550;-59
2022/04/13 09:37:39;;;;;;;14.63;7.78;;;;;;;;;;4969067;28;20086;-59
2022/04/13 09:40:06;;;;;;;16.67;8.02;;;;;;;;;;4986356;28;20038;-58
2022/04/13 09:42:32;;;;;;;14.82;7.68;;;;;;;;;;4986382;28;20047;-58
2022/04/13 09:45:02;;;;;;;13.68;7.70;;;;;;;;;;4986967;28;20085;-58
2022/04/13 09:47:33;;;;;;;15.88;7.28;;;;;;;;;;4987021;28;20077;-58
2022/04/13 09:49:59;;;;;;;19.02;7.78;;;;;;;;;;4985793;28;20544;-58
2022/04/13 09:52:26;;;;;;;15.00;7.57;;;;;;;;;;4986322;28;20121;-58
2022/04/13 09:54:52;;;;;;;13.13;7.57;;;;;;;;;;4986466;28;20046;-58
2022/04/13 09:57:22;;;;;;;17.35;6.97;;;;;;;;;;4986316;28;20042;-57
2022/04/13 09:59:55;;;;;;;19.27;7.30;;;;;;;;;;4986337;28;20043;-58
2022/04/13 10:02:35;;;;;;;17.38;8.05;;;;;;;;;;4986539;28;20057;-58
2022/04/13 10:05:01;;;;;;;12.98;6.95;;;;;;;;;;4967602;28;20504;-59
2022/04/13 10:07:27;;;;;;;18.15;8.18;;;;;;;;;;4986739;28;20050;-58
2022/04/13 10:09:53;;;;;;;13.98;6.65;;;;;;;;;;4985805;28;20121;-58
2022/04/13 10:12:20;;;;;;;14.68;6.75;;;;;;;;;;4986060;28;20502;-59
2022/04/13 10:14:46;;;;;;;14.30;6.43;;;;;;;;;;4986029;28;20130;-58
2022/04/13 10:17:13;;;;;;;16.52;6.38;;;;;;;;;;4985810;28;20046;-58
2022/04/13 10:19:40;;;;;;;16.52;7.78;;;;;;;;;;4985189;28;20050;-58
2022/04/13 10:22:06;;;;;;;12.80;6.97;;;;;;;;;;4985986;28;20054;-58
2022/04/13 10:24:34;;;;;;;13.25;6.82;;;;;;;;;;4968037;28;20034;-58
2022/04/13 10:27:01;;;;;;;13.00;6.13;;;;;;;;;;4985892;28;20081;-59
2022/04/13 10:29:28;;;;;;;12.65;5.80;;;;;;;;;;4986216;28;20077;-58
2022/04/13 10:32:14;;;;;;;11.60;6.53;;;;;;;;;;4985368;28;20053;-58
2022/04/13 10:34:42;;;;;;;9.57;5.45;;;;;;;;;;4984872;28;20048;-58
2022/04/13 10:37:10;;;;;;;11.32;5.50;;;;;;;;;;4985650;28;20120;-58
2022/04/13 10:39:36;;;;;;;11.40;5.20;;;;;;;;;;4985561;28;20510;-58
2022/04/13 10:42:03;;;;;;;11.68;5.22;;;;;;;;;;4985838;28;20078;-58
2022/04/13 10:44:33;;;;;;;12.02;5.13;;;;;;;;;;4986353;28;20047;-58
2022/04/13 10:47:02;;;;;;;14.90;6.32;;;;;;;;;;4986292;28;20098;-58
2022/04/13 10:49:30;;;;;;;13.32;5.63;;;;;;;;;;4985586;28;20061;-59
2022/04/13 10:51:59;;;;;;;11.07;5.90;;;;;;;;;;4968062;28;20050;-58
2022/04/13 10:54:31;;;;;;;13.02;6.30;;;;;;;;;;4986649;28;20050;-59
2022/04/13 10:56:59;;;;;;;10.52;5.25;;;;;;;;;;4986064;28;20524;-59
2022/04/13 10:59:32;;;;;;;12.77;4.90;;;;;;;;;;4985797;28;20042;-58
2022/04/13 11:02:04;;;;;;;8.82;4.50;;;;;;;;;;4985783;28;20487;-58
2022/04/13 11:04:32;;;;;;;10.40;4.80;;;;;;;;;;4984812;28;20053;-59
2022/04/13 11:06:59;;;;;;;8.65;3.60;;;;;;;;;;4985905;28;20050;-58
2022/04/13 11:09:27;;;;;;;7.07;2.47;;;;;;;;;;4985911;28;20046;-59
2022/04/13 11:11:56;;;;;;;7.88;2.50;;;;;;;;;;4985049;28;20126;-59
2022/04/13 11:14:23;;;;;;;9.00;3.20;;;;;;;;;;4966546;28;20042;-59
2022/04/13 11:16:53;;;;;;;11.47;3.90;;;;;;;;;;4984742;28;20482;-59
2022/04/13 11:19:20;;;;;;;6.80;3.35;;;;;;;;;;4986226;28;20296;-59
2022/04/13 11:22:07;;;;;;;7.90;3.17;;;;;;;;;;4986606;28;20127;-59
2022/04/13 11:24:34;;;;;;;9.55;3.63;;;;;;;;;;4985720;28;20057;-59
2022/04/13 11:27:00;;;;;;;8.40;3.67;;;;;;;;;;4986520;28;20050;-59
2022/04/13 11:29:34;;;;;;;9.00;2.90;;;;;;;;;;4998874;28;20077;-59
2022/04/13 11:32:00;;;;;;;9.00;2.72;;;;;;;;;;5003673;28;20054;-59
2022/04/13 11:34:27;;;;;;;6.63;2.72;;;;;;;;;;5007609;28;20488;-59
2022/04/13 11:36:58;;;;;;;7.43;2.90;;;;;;;;;;5007607;28;20053;-59
2022/04/13 11:39:43;;;;;;;11.70;3.70;;;;;;;;;;5008498;28;20193;-59
2022/04/13 11:42:24;;;;;;;9.23;2.85;;;;;;;;;;5008725;28;20088;-59
2022/04/13 11:45:01;;;;;;;6.90;2.97;;;;;;;;;;5008036;28;20045;-59
2022/04/13 11:47:43;;;;;;;7.53;2.42;;;;;;;;;;5008539;28;20121;-59
2022/04/13 11:50:13;;;;;;;9.85;3.33;;;;;;;;;;5007840;28;20065;-59
2022/04/13 11:52:46;;;;;;;6.75;2.80;;;;;;;;;;5007416;28;20046;-59
2022/04/13 11:55:16;;;;;;;12.23;4.22;;;;;;;;;;5008429;28;20046;-59
2022/04/13 11:57:52;;;;;;;14.88;5.03;;;;;;;;;;5007960;28;20124;-59
2022/04/13 12:00:37;;;;;;;14.23;4.95;;;;;;;;;;5007762;28;20714;-59
2022/04/13 12:03:06;;;;;;;10.80;5.45;;;;;;;;;;5008324;28;20765;-59
2022/04/13 12:05:33;;;;;;;14.38;6.70;;;;;;;;;;5007057;28;20060;-59
2022/04/13 12:08:00;;;;;;;11.93;5.43;;;;;;;;;;4990993;28;20057;-59
2022/04/13 12:10:26;;;;;;;11.25;6.45;;;;;;;;;;5008305;28;20053;-59
2022/04/13 12:12:53;;;;;;;12.57;6.25;;;;;;;;;;5007339;28;20064;-59
2022/04/13 12:15:19;;;;;;;11.35;5.53;;;;;;;;;;5007835;28;20347;-59
2022/04/13 12:17:45;;;;;;;13.45;5.05;;;;;;;;;;5007597;28;20504;-59
2022/04/13 12:20:31;;;;;;;16.63;5.53;;;;;;;;;;5007079;28;20061;-59
2022/04/13 12:22:57;;;;;;;10.77;4.40;;;;;;;;;;4990327;28;20407;-59
2022/04/13 12:25:24;;;;;;;8.52;3.10;;;;;;;;;;5007309;28;20562;-59
2022/04/13 12:28:04;;;;;;;6.43;1.75;;;;;;;;;;5006877;28;20046;-57
2022/04/13 12:30:30;;;;;;;7.75;2.63;;;;;;;;;;5007709;28;20407;-59
2022/04/13 12:32:57;;;;;;;7.82;1.70;;;;;;;;;;5007963;28;20038;-59
2022/04/13 12:35:23;;;;;;;6.72;0.90;;;;;;;;;;5006813;28;20061;-59
2022/04/13 12:37:51;;;;;;;6.28;0.93;;;;;;;;;;5007041;28;20041;-59
2022/04/13 12:40:20;;;;;;;9.20;1.05;;;;;;;;;;5007731;28;20075;-58
2022/04/13 12:42:46;;;;;;;6.97;1.13;;;;;;;;;;5007115;28;20046;-59
2022/04/13 12:45:12;;;;;;;10.43;1.67;;;;;;;;;;5007531;28;20069;-59
2022/04/13 12:47:47;;;;;;;9.82;2.40;;;;;;;;;;5007378;28;20046;-58
2022/04/13 12:50:13;;;;;;;6.68;1.58;;;;;;;;;;5006105;28;20128;-59
2022/04/13 12:52:39;;;;;;;4.90;1.33;;;;;;;;;;5006278;28;20048;-59
2022/04/13 12:55:06;;;;;;;8.50;1.52;;;;;;;;;;5007424;28;20122;-59
2022/04/13 12:57:32;;;;;;;7.90;1.63;;;;;;;;;;5006562;28;20042;-59
2022/04/13 12:59:58;;;;;;;8.95;1.50;;;;;;;;;;5007669;28;20079;-59
2022/04/13 13:02:24;;;;;;;7.97;1.63;;;;;;;;;;5006470;28;20073;-59
2022/04/13 13:04:52;;;;;;;8.35;1.52;;;;;;;;;;5005169;28;20052;-59
2022/04/13 13:07:19;;;;;;;7.40;2.05;;;;;;;;;;5007078;28;20133;-58
2022/04/13 13:09:53;;;;;;;10.05;1.90;;;;;;;;;;5006925;28;20198;-57
2022/04/13 13:12:20;;;;;;;9.00;1.73;;;;;;;;;;5006896;28;20046;-57
2022/04/13 13:14:47;;;;;;;4.68;1.42;;;;;;;;;;5006121;28;20504;-58
2022/04/13 13:17:17;;;;;;;7.80;1.73;;;;;;;;;;5006758;28;20127;-58
2022/04/13 13:19:45;;;;;;;6.60;1.80;;;;;;;;;;5005874;28;20049;-58
2022/04/13 13:22:15;;;;;;;9.10;2.03;;;;;;;;;;5006748;28;20510;-58
2022/04/13 13:24:45;;;;;;;7.28;2.50;;;;;;;;;;5006524;28;20628;-58
2022/04/13 13:27:11;;;;;;;9.10;2.47;;;;;;;;;;5006002;28;20050;-58
2022/04/13 13:29:44;;;;;;;10.07;1.90;;;;;;;;;;5006474;28;20042;-58
2022/04/13 13:32:11;;;;;;;6.90;2.30;;;;;;;;;;5006149;28;20120;-58
2022/04/13 13:34:37;;;;;;;9.90;2.33;;;;;;;;;;5005691;28;20050;-59
2022/04/13 13:37:04;;;;;;;7.65;1.90;;;;;;;;;;5006352;28;20046;-58
2022/04/13 13:39:30;;;;;;;5.45;1.65;;;;;;;;;;5005178;28;20051;-59
2022/04/13 13:42:03;;;;;;;7.38;2.33;;;;;;;;;;5006567;28;20041;-58
2022/04/13 13:44:29;;;;;;;10.05;2.92;;;;;;;;;;5006285;28;20046;-57
2022/04/13 13:46:56;;;;;;;7.10;1.88;;;;;;;;;;5006660;28;20131;-57
2022/04/13 13:49:22;;;;;;;6.10;1.70;;;;;;;;;;5005727;28;20038;-58
2022/04/13 13:51:48;;;;;;;7.65;1.98;;;;;;;;;;5005425;28;20477;-58
2022/04/13 13:54:14;;;;;;;6.88;1.63;;;;;;;;;;5005808;28;20511;-58
2022/04/13 13:56:40;;;;;;;13.27;1.48;;;;;;;;;;5005399;28;20530;-58
2022/04/13 13:59:07;;;;;;;5.72;1.50;;;;;;;;;;5005831;28;20154;-58
2022/04/13 14:01:33;;;;;;;8.40;1.90;;;;;;;;;;5005854;28;20753;-58
2022/04/13 14:03:59;;;;;;;3.08;1.33;;;;;;;;;;5005452;28;20089;-57
2022/04/13 14:06:25;;;;;;;10.00;2.03;;;;;;;;;;5005388;28;20496;-58
2022/04/13 14:08:52;;;;;;;7.38;2.03;;;;;;;;;;4989133;28;20503;-58
2022/04/13 14:11:18;;;;;;;8.27;1.75;;;;;;;;;;4988660;28;20033;-58
2022/04/13 14:13:45;;;;;;;9.02;1.92;;;;;;;;;;5004965;28;20176;-58
2022/04/13 14:16:11;;;;;;;14.57;2.42;;;;;;;;;;5002933;28;20030;-58
2022/04/13 14:18:39;;;;;;;8.68;2.13;;;;;;;;;;5004276;28;20451;-58
2022/04/13 14:21:05;;;;;;;7.53;1.63;;;;;;;;;;4985628;28;20591;-58
2022/04/13 14:23:31;;;;;;;8.30;2.13;;;;;;;;;;4986010;28;20039;-58
2022/04/13 14:25:57;;;;;;;7.72;1.83;;;;;;;;;;4986408;28;20073;-57
2022/04/13 14:28:23;;;;;;;9.90;2.20;;;;;;;;;;4999967;28;20693;-57